Flight Track Log - Related Links

Times and Time Zones

All times are in EDT time to prevent confusion due to time zone crossing. See the GTH88 flight status page for this flight to view local times or setup timezone preferences in your user account.

Time Position Orientation Groundspeed Altitude Reporting Facility
EDT Latitude Longitude Course Direction KTS MPH feet Rate Location/Type
Sun 05:29:23 PM 37.6642 -122.1370 295° West 171 197 900  Level FlightAware ADS-B
Sun 05:29:27 PM 37.6644 -122.1410 274° West 176 203 1,000 1,500 Climbing FlightAware ADS-B
Sun 05:29:31 PM 37.6640 -122.1450 263° West 183 211 1,100 1,800 Climbing FlightAware ADS-B
Sun 05:29:37 PM 37.6620 -122.1510 247° West 191 220 1,300 2,000 Climbing FlightAware ADS-B
Sun 05:29:40 PM 37.6599 -122.1540 229° Southwest 195 224 1,400 1,714 Climbing FlightAware ADS-B
Sun 05:29:44 PM 37.6574 -122.1570 224° Southwest 199 229 1,500 1,714 Climbing FlightAware ADS-B
Sun 05:29:47 PM 37.6552 -122.1590 216° Southwest 202 232 1,600 857 Climbing FlightAware ADS-B
Sun 05:29:51 PM 37.6517 -122.1610 204° Southwest 206 237 1,600 750 Level FlightAware ADS-B
Sun 05:29:55 PM 37.6481 -122.1620 192° South 207 238 1,700 1,714 Climbing FlightAware ADS-B
Sun 05:29:58 PM 37.6450 -122.1620 180° South 208 239 1,800 2,000 Climbing FlightAware ADS-B
Sun 05:30:01 PM 37.6416 -122.1610 167° South 209 241 1,900 1,714 Climbing FlightAware ADS-B
Sun 05:30:05 PM 37.6381 -122.1600 167° South 210 242 2,000 1,500 Climbing FlightAware ADS-B
Sun 05:30:09 PM 37.6351 -122.1580 152° Southeast 212 244 2,100 1,500 Climbing FlightAware ADS-B
Sun 05:30:13 PM 37.6319 -122.1550 143° Southeast 213 245 2,200 1,714 Climbing FlightAware ADS-B
Sun 05:30:16 PM 37.6297 -122.1520 133° Southeast 214 246 2,300 2,000 Climbing FlightAware ADS-B
Sun 05:30:19 PM 37.6279 -122.1490 127° Southeast 214 246 2,400 2,000 Climbing FlightAware ADS-B
Sun 05:30:22 PM 37.6262 -122.1450 118° Southeast 214 246 2,500 1,714 Climbing FlightAware ADS-B
Sun 05:30:26 PM 37.6250 -122.1410 111° Southeast 212 244 2,600 1,500 Climbing FlightAware ADS-B
Sun 05:30:30 PM 37.6241 -122.1360 103° East 212 244 2,700 1,500 Climbing FlightAware ADS-B
Sun 05:30:34 PM 37.6239 -122.1310 93° East 212 244 2,800 1,714 Climbing FlightAware ADS-B
Sun 05:30:37 PM 37.6242 -122.1280 83° East 212 244 2,900 1,000 Climbing FlightAware ADS-B
Sun 05:30:40 PM 37.6250 -122.1230 79° East 209 241 2,900  Level FlightAware ADS-B
Sun 05:30:44 PM 37.6263 -122.1190 68° East 207 238 2,900  Level FlightAware ADS-B
Sun 05:30:48 PM 37.6281 -122.1160 53° Northeast 204 235 2,900  Level FlightAware ADS-B
Sun 05:30:51 PM 37.6298 -122.1130 54° Northeast 202 232 2,900  Level FlightAware ADS-B
Sun 05:30:55 PM 37.6324 -122.1100 42° Northeast 200 230 2,900  Level FlightAware ADS-B
Sun 05:30:59 PM 37.6355 -122.1070 37° Northeast 199 229 2,900  Level FlightAware ADS-B
Sun 05:31:02 PM 37.6383 -122.1050 29° Northeast 200 230 2,900  Level FlightAware ADS-B
Sun 05:31:06 PM 37.6414 -122.1040 14° North 203 234 2,900 600 Level FlightAware ADS-B
Sun 05:31:12 PM 37.6470 -122.1010 23° Northeast 206 237 3,000 2,286 Climbing FlightAware ADS-B
Sun 05:31:27 PM 37.6608 -122.0960 16° North 208 239 3,700 3,000 Climbing FlightAware ADS-B
Sun 05:31:40 PM 37.6729 -122.0910 18° North 204 235 4,400 3,231 Climbing FlightAware ADS-B
Sun 05:31:53 PM 37.6848 -122.0870 15° North 199 229 5,100 2,690 Climbing FlightAware ADS-B
Sun 05:32:09 PM 37.6983 -122.0820 16° North 205 236 5,700 2,286 Climbing FlightAware ADS-B
Sun 05:32:14 PM 37.7037 -122.0800 16° North 211 243 5,900 2,182 Climbing FlightAware ADS-B
Sun 05:32:20 PM 37.7091 -122.0790 North 215 247 6,100 1,500 Climbing FlightAware ADS-B
Sun 05:32:34 PM 37.7247 -122.0760 North 238 274 6,400 1,500 Climbing FlightAware ADS-B
Sun 05:32:48 PM 37.7400 -122.0730 North 256 295 6,800 2,077 Climbing FlightAware ADS-B
Sun 05:33:00 PM 37.7542 -122.0710 North 260 299 7,300 2,889 Climbing FlightAware ADS-B
Sun 05:33:15 PM 37.7727 -122.0680 North 261 300 8,100 3,097 Climbing FlightAware ADS-B
Sun 05:33:31 PM 37.7914 -122.0660 North 267 307 8,900 3,000 Climbing FlightAware ADS-B
Sun 05:33:41 PM 37.8040 -122.0640 North 269 310 9,400 3,375 Climbing FlightAware ADS-B
Sun 05:33:47 PM 37.8114 -122.0620 12° North 269 310 9,800 3,818 Climbing FlightAware ADS-B
Sun 05:33:52 PM 37.8180 -122.0600 13° North 271 312 10,100 3,000 Climbing FlightAware ADS-B
Sun 05:33:59 PM 37.8253 -122.0570 18° North 276 318 10,400 2,308 Climbing FlightAware ADS-B
Sun 05:34:05 PM 37.8324 -122.0520 29° Northeast 281 323 10,600 2,087 Climbing FlightAware ADS-B
Sun 05:34:22 PM 37.8528 -122.0370 30° Northeast 298 343 11,200 2,250 Climbing FlightAware ADS-B
Sun 05:34:29 PM 37.8604 -122.0290 40° Northeast 304 350 11,500 2,182 Climbing FlightAware ADS-B
Sun 05:34:33 PM 37.8641 -122.0250 40° Northeast 307 353 11,600 3,000 Climbing FlightAware ADS-B
Sun 05:34:37 PM 37.8685 -122.0190 47° Northeast 309 356 11,900 3,600 Climbing FlightAware ADS-B
Sun 05:34:43 PM 37.8735 -122.0110 52° Northeast 309 356 12,200 3,692 Climbing FlightAware ADS-B
Sun 05:34:50 PM 37.8796 -122.0000 55° Northeast 311 358 12,700 3,300 Climbing FlightAware ADS-B
Sun 05:35:03 PM 37.8884 -121.9790 62° Northeast 320 368 13,300 2,526 Climbing FlightAware ADS-B
Sun 05:35:09 PM 37.8913 -121.9690 70° East 327 376 13,500 1,846 Climbing FlightAware ADS-B
Sun 05:35:16 PM 37.8945 -121.9540 75° East 337 388 13,700 1,579 Climbing FlightAware ADS-B
Sun 05:35:47 PM 37.9053 -121.8940 77° East 357 411 14,500 1,750 Climbing FlightAware ADS-B
Sun 05:36:52 PM 37.9322 -121.7560 76° East 358 412 16,500 1,875 Climbing FlightAware ADS-B
Sun 05:37:39 PM 37.9522 -121.6520 76° East 392 451 18,000 2,100 Climbing FlightAware ADS-B
Sun 05:38:12 PM 37.9662 -121.5790 76° East 393 452 19,300 2,000 Climbing FlightAware ADS-B
Sun 05:38:42 PM 37.9792 -121.5110 76° East 400 460 20,100 1,548 Climbing FlightAware ADS-B
Sun 05:39:14 PM 37.9932 -121.4370 76° East 411 473 20,900 1,701 Climbing FlightAware ADS-B
Sun 05:39:49 PM 38.0085 -121.3560 76° East 413 475 22,000 1,703 Climbing FlightAware ADS-B
Sun 05:40:28 PM 38.0211 -121.2897 76° East 409 471 23,000 1,620 Climbing Oakland Center
Sun 05:41:29 PM 38.0472 -121.1472 77° East 415 478 24,700 1,463 Climbing Oakland Center
Sun 05:42:31 PM 38.0739 -121.0008 77° East 424 488 26,000 1,317 Climbing Oakland Center
Sun 05:43:32 PM 38.0967 -120.8103 81° East 460 529 27,400 1,268 Climbing Oakland Center
Sun 05:44:34 PM 38.1067 -120.6436 86° East 474 545 28,600 1,632 Climbing Oakland Center
Sun 05:50:31 PM 38.1703 -119.6228 86° East 469 540 38,800 1,646 Climbing FlightAware ADS-B
Sun 05:51:15 PM 38.1769 -119.5054 86° East 473 544 39,600 1,286 Climbing FlightAware ADS-B
Sun 05:51:55 PM 38.1783 -119.4810 86° East 467 537 40,600 1,304 Climbing FlightAware ADS-B
Sun 05:52:47 PM 38.1905 -119.2580 86° East 463 533 41,600 913 Climbing FlightAware ADS-B
Sun 05:53:27 PM 38.1952 -119.1709 86° East 470 541 42,000 621 Climbing FlightAware ADS-B
Sun 05:54:14 PM 38.2029 -119.0224 86° East 472 543 42,500 468 Climbing FlightAware ADS-B
Sun 05:54:44 PM 38.2065 -118.9535 86° East 479 551 42,600 290 Climbing FlightAware ADS-B
Sun 05:55:16 PM 38.2118 -118.8494 86° East 485 558 42,800 627 Climbing FlightAware ADS-B
Sun 05:55:51 PM 38.2156 -118.7672 86° East 479 551 43,300 495 Climbing Oakland Center
Sun 05:56:53 PM 38.2244 -118.5978 86° East 482 555 43,600 -97 Climbing Oakland Center
Sun 05:57:55 PM 38.2328 -118.4261 86° East 487 560 43,100 -293 Descending Oakland Center
Sun 05:58:56 PM 38.2419 -118.2175 87° East 493 567 43,000 -49 Descending Oakland Center
Sun 05:59:58 PM 38.2494 -118.0681 86° East 497 572 43,000  Level Oakland Center
Sun 06:00:59 PM 38.2583 -117.8533 87° East 505 581 43,000  Level Oakland Center
Sun 06:02:01 PM 38.2658 -117.6725 87° East 509 586 43,000  Level Oakland Center
Sun 06:03:03 PM 38.2725 -117.4939 87° East 505 581 43,000  Level Oakland Center
Sun 06:04:04 PM 38.2789 -117.3311 87° East 500 575 43,000  Level Oakland Center
Sun 06:05:06 PM 38.2853 -117.1536 87° East 503 579 43,000  Level Oakland Center
Sun 06:05:50 PM 38.2894 -117.0222 88° East 504 580 43,000  Level Salt Lake Center
Sun 06:06:52 PM 38.2953 -116.8408 88° East 508 585 43,000  Level Salt Lake Center
Sun 06:07:53 PM 38.3022 -116.6214 88° East 514 592 43,000  Level Salt Lake Center
Sun 06:08:55 PM 38.3078 -116.4389 88° East 515 593 43,000  Level Salt Lake Center
Sun 06:09:57 PM 38.3136 -116.2589 88° East 511 588 43,000  Level Salt Lake Center
Sun 06:10:59 PM 38.3181 -116.0775 88° East 511 588 43,000  Level Salt Lake Center
Sun 06:12:01 PM 38.3219 -115.8978 88° East 509 586 43,000  Level Salt Lake Center
Sun 06:13:02 PM 38.3264 -115.7189 88° East 506 582 43,000  Level Salt Lake Center
Sun 06:14:04 PM 38.3308 -115.5367 88° East 513 590 43,000  Level Salt Lake Center
Sun 06:15:06 PM 38.3356 -115.3278 88° East 512 589 43,000  Level Salt Lake Center
Sun 06:16:08 PM 38.3403 -115.1464 88° East 513 590 43,000  Level Salt Lake Center
Sun 06:21:56 PM 38.3546 -114.0954 88° East 513 590 43,000  Level FlightAware ADS-B
Sun 06:22:28 PM 38.3556 -113.9894 89° East 513 590 43,000  Level FlightAware ADS-B
Sun 06:23:06 PM 38.3565 -113.8949 89° East 512 589 43,000  Level FlightAware ADS-B
Sun 06:24:00 PM 38.3578 -113.7129 89° East 511 588 43,000  Level FlightAware ADS-B
Sun 06:24:30 PM 38.3583 -113.6277 90° East 512 589 43,000  Level FlightAware ADS-B
Sun 06:25:05 PM 38.3587 -113.5532 90° East 511 588 43,000  Level FlightAware ADS-B
Sun 06:26:16 PM 38.3597 -113.3043 90° East 511 588 43,000  Level FlightAware ADS-B
Sun 06:26:46 PM 38.3599 -113.2491 90° East 512 589 43,000  Level FlightAware ADS-B
Sun 06:27:21 PM 38.3602 -113.1155 90° East 512 589 43,000  Level FlightAware ADS-B
Sun 06:27:52 PM 38.3608 -113.0130 90° East 515 593 43,000  Level FlightAware ADS-B
Sun 06:27:55 PM 38.3608 -113.0093 90° East 515 593 43,000  Level FlightAware ADS-B
Sun 06:28:23 PM 38.3634 -112.9220 88° East 515 593 43,000  Level FlightAware ADS-B
Sun 06:28:54 PM 38.3665 -112.8260 88° East 516 594 43,000  Level FlightAware ADS-B
Sun 06:29:13 PM 38.3683 -112.7701 88° East 516 594 43,000  Level FlightAware ADS-B
Sun 06:29:24 PM 38.3694 -112.7350 88° East 517 595 43,000  Level FlightAware ADS-B
Sun 06:30:02 PM 38.3731 -112.6190 88° East 517 595 43,000  Level FlightAware ADS-B
Sun 06:30:35 PM 38.3761 -112.5180 88° East 520 598 43,000  Level FlightAware ADS-B
Sun 06:31:22 PM 38.3803 -112.3750 88° East 519 597 43,000  Level FlightAware ADS-B
Sun 06:31:53 PM 38.3829 -112.2840 88° East 512 589 43,000  Level FlightAware ADS-B
Sun 06:32:32 PM 38.3862 -112.1660 88° East 507 583 43,000  Level FlightAware ADS-B
Sun 06:33:05 PM 38.3888 -112.0680 88° East 506 582 43,000  Level FlightAware ADS-B
Sun 06:33:37 PM 38.3913 -111.9720 88° East 508 585 43,000  Level FlightAware ADS-B
Sun 06:34:08 PM 38.3935 -111.8820 88° East 509 586 43,000  Level FlightAware ADS-B
Sun 06:34:51 PM 38.3966 -111.7520 88° East 506 582 43,000  Level FlightAware ADS-B
Sun 06:35:26 PM 38.3990 -111.6480 88° East 505 581 43,000  Level FlightAware ADS-B
Sun 06:36:01 PM 38.4013 -111.5440 88° East 511 588 43,000  Level FlightAware ADS-B
Sun 06:36:32 PM 38.4033 -111.4500 88° East 515 593 43,000  Level FlightAware ADS-B
Sun 06:36:36 PM 38.4030 -111.4624 268° West 515 593 43,000  Level FlightAware ADS-B
Sun 06:37:05 PM 38.4053 -111.3510 88° East 514 592 43,000  Level FlightAware ADS-B
Sun 06:37:10 PM 38.4056 -111.3362 89° East 513 590 43,000  Level FlightAware ADS-B
Sun 06:37:41 PM 38.4072 -111.2542 89° East 512 589 43,000  Level FlightAware ADS-B
Sun 06:37:51 PM 38.4080 -111.2130 89° East 511 588 43,000  Level FlightAware ADS-B
Sun 06:38:13 PM 38.4091 -111.1526 89° East 513 590 43,000  Level FlightAware ADS-B
Sun 06:38:50 PM 38.4112 -111.0330 89° East 512 589 43,000  Level FlightAware ADS-B
Sun 06:39:36 PM 38.4133 -110.9084 89° East 519 597 43,000  Level FlightAware ADS-B
Sun 06:40:11 PM 38.4149 -110.8087 89° East 522 601 43,000  Level FlightAware ADS-B
Sun 06:40:45 PM 38.4168 -110.6842 89° East 528 608 43,000  Level FlightAware ADS-B
Sun 06:41:15 PM 38.4190 -110.5982 88° East 531 611 43,000  Level FlightAware ADS-B
Sun 06:42:09 PM 38.4230 -110.4323 88° East 533 613 43,000  Level FlightAware ADS-B
Sun 06:42:49 PM 38.4261 -110.2941 88° East 535 616 43,000  Level FlightAware ADS-B
Sun 06:43:21 PM 38.4278 -110.2130 88° East 535 616 43,000  Level FlightAware ADS-B
Sun 06:43:52 PM 38.4300 -110.1055 88° East 533 613 43,000  Level FlightAware ADS-B
Sun 06:44:32 PM 38.4323 -109.9901 89° East 530 610 43,000  Level FlightAware ADS-B
Sun 06:45:08 PM 38.4345 -109.8722 89° East 532 612 43,000  Level FlightAware ADS-B
Sun 06:45:39 PM 38.4363 -109.7713 89° East 533 613 43,000  Level FlightAware ADS-B
Sun 06:46:16 PM 38.4380 -109.6686 89° East 533 613 43,000  Level FlightAware ADS-B
Sun 06:46:49 PM 38.4400 -109.5435 89° East 532 612 43,000  Level FlightAware ADS-B
Sun 06:47:22 PM 38.4413 -109.4558 89° East 533 613 43,000  Level FlightAware ADS-B
Sun 06:47:52 PM 38.4429 -109.3470 89° East 536 617 43,000  Level FlightAware ADS-B
Sun 06:48:31 PM 38.4445 -109.2230 89° East 535 616 43,000  Level FlightAware ADS-B
Sun 06:49:03 PM 38.4458 -109.1201 89° East 539 620 43,000  Level FlightAware ADS-B
Sun 06:49:36 PM 38.4469 -109.0152 89° East 541 623 43,000  Level FlightAware ADS-B
Sun 06:50:12 PM 38.4481 -108.9005 89° East 543 625 43,000  Level FlightAware ADS-B
Sun 06:50:52 PM 38.4493 -108.7746 89° East 544 626 43,000  Level FlightAware ADS-B
Sun 06:51:28 PM 38.4502 -108.6590 89° East 541 623 43,000  Level FlightAware ADS-B
Sun 06:51:59 PM 38.4509 -108.5701 89° East 539 620 43,000  Level FlightAware ADS-B
Sun 06:52:40 PM 38.4519 -108.4327 89° East 538 619 43,000  Level FlightAware ADS-B
Sun 06:53:18 PM 38.4525 -108.3125 90° East 537 618 43,000  Level FlightAware ADS-B
Sun 06:53:48 PM 38.4530 -108.2285 90° East 537 618 43,000 95 Level FlightAware ADS-B
Sun 06:54:21 PM 38.4534 -108.1166 90° East 539 620 43,100 658 Climbing FlightAware ADS-B
Sun 06:55:01 PM 38.4538 -108.0120 90° East 530 610 43,800 889 Climbing FlightAware ADS-B
Sun 06:55:42 PM 38.4540 -107.8666 90° East 528 608 44,300 676 Climbing FlightAware ADS-B
Sun 06:56:12 PM 38.4541 -107.7878 90° East 526 605 44,600 452 Climbing FlightAware ADS-B
Sun 06:57:15 PM 38.4539 -107.5903 90° East 525 604 45,000 255 Climbing FlightAware ADS-B
Sun 06:57:46 PM 38.4537 -107.4802 90° East 526 605 45,000  Level FlightAware ADS-B
Sun 06:58:16 PM 38.4536 -107.4383 90° East 522 601 45,000  Level FlightAware ADS-B
Sun 06:58:47 PM 38.4532 -107.3027 90° East 520 598 45,000  Level FlightAware ADS-B
Sun 06:59:12 PM 38.4529 -107.2329 90° East 524 603 45,000  Level FlightAware ADS-B
Sun 06:59:42 PM 38.4555 -107.1310 88° East 528 608 45,000  Level FlightAware ADS-B (KANK)
Sun 06:59:45 PM 38.4536 -107.4432 270° West 526 605 45,000  Level FlightAware ADS-B (KGUC)
Sun 07:00:18 PM 38.4656 -107.0084 88° East 525 604 45,000  Level FlightAware ADS-B
Sun 07:00:49 PM 38.4743 -106.9407 81° East 528 608 45,000  Level FlightAware ADS-B
Sun 07:01:21 PM 38.4969 -106.8153 77° East 530 610 45,000  Level FlightAware ADS-B
Sun 07:01:53 PM 38.5071 -106.7640 76° East 528 608 45,000  Level FlightAware ADS-B (KANK)
Sun 07:02:23 PM 38.5332 -106.6315 76° East 528 608 45,000  Level FlightAware ADS-B
Sun 07:02:56 PM 38.5532 -106.5302 76° East 529 609 45,000  Level FlightAware ADS-B
Sun 07:03:27 PM 38.5739 -106.4378 74° East 531 611 45,000  Level FlightAware ADS-B
Sun 07:04:01 PM 38.5991 -106.3389 72° East 533 613 45,000  Level FlightAware ADS-B
Sun 07:04:31 PM 38.6209 -106.2531 72° East 535 616 45,000  Level FlightAware ADS-B
Sun 07:05:04 PM 38.6475 -106.1484 72° East 539 620 45,000  Level FlightAware ADS-B
Sun 07:05:34 PM 38.6662 -106.0743 72° East 543 625 45,000  Level FlightAware ADS-B
Sun 07:06:08 PM 38.6876 -105.9896 72° East 544 626 45,000  Level FlightAware ADS-B
Sun 07:06:50 PM 38.7261 -105.8361 72° East 543 625 45,000  Level FlightAware ADS-B
Sun 07:07:20 PM 38.7499 -105.7407 72° East 544 626 45,000  Level FlightAware ADS-B
Sun 07:07:55 PM 38.7791 -105.6235 72° East 541 623 45,000  Level FlightAware ADS-B (KANK)
Sun 07:08:28 PM 38.7896 -105.5813 72° East 544 626 45,000  Level FlightAware ADS-B (KANK)
Sun 07:09:08 PM 38.8329 -105.4057 72° East 546 628 45,000  Level FlightAware ADS-B (KANK)
Sun 07:09:40 PM 38.8488 -105.3411 72° East 545 627 45,000  Level FlightAware ADS-B (KEIK)
Sun 07:10:10 PM 38.8759 -105.2297 73° East 546 628 45,000  Level FlightAware ADS-B (KANK)
Sun 07:10:52 PM 38.9119 -105.0817 73° East 543 625 45,000  Level FlightAware ADS-B (KEIK)
Sun 07:11:33 PM 38.9256 -105.0249 73° East 540 621 45,000  Level FlightAware ADS-B (KEIK)
Sun 07:12:18 PM 38.9749 -104.8202 73° East 542 624 45,000  Level FlightAware ADS-B (KEIK)
Sun 07:12:57 PM 39.0044 -104.6971 73° East 544 626 45,000  Level FlightAware ADS-B (KEIK)
Sun 07:13:27 PM 39.0218 -104.6239 73° East 543 625 45,000  Level FlightAware ADS-B (KEIK)
Sun 07:13:59 PM 39.0493 -104.5084 73° East 543 625 45,000  Level FlightAware ADS-B (KEIK)
Sun 07:14:38 PM 39.0727 -104.4090 73° East 545 627 45,000  Level FlightAware ADS-B (KEIK)
Sun 07:15:10 PM 39.0970 -104.3057 73° East 545 627 45,000  Level FlightAware ADS-B (KEIK)
Sun 07:16:00 PM 39.1368 -104.1353 73° East 543 625 45,000  Level FlightAware ADS-B (KEIK)
Sun 07:16:46 PM 39.1682 -103.9998 73° East 540 621 45,000  Level FlightAware ADS-B (KEIK)
Sun 07:18:51 PM 39.2576 -103.6102 73° East 537 618 45,000  Level FlightAware ADS-B (KEIK)
Sun 07:20:29 PM 39.3257 -103.3096 74° East 542 624 45,000  Level FlightAware ADS-B (KEIK)
Sun 07:22:10 PM 39.3958 -102.9948 74° East 546 628 45,000  Level FlightAware ADS-B (KEIK)
Sun 07:23:09 PM 39.4353 -102.8156 74° East 546 628 45,000  Level Denver Center
Sun 07:24:11 PM 39.4761 -102.6267 74° East 547 629 45,000  Level Denver Center
Sun 07:25:13 PM 39.5178 -102.4392 74° East 545 627 45,000  Level Denver Center
Sun 07:26:15 PM 39.5556 -102.2556 75° East 540 621 45,000  Level Denver Center
Sun 07:27:17 PM 39.6006 -102.0483 74° East 537 618 45,000  Level Denver Center
Sun 07:28:19 PM 39.6392 -101.8686 74° East 540 621 45,000  Level Denver Center
Sun 07:29:21 PM 39.6825 -101.6594 75° East 540 621 45,000  Level Denver Center
Sun 07:30:23 PM 39.7192 -101.4797 75° East 540 621 45,000  Level Denver Center
Sun 07:31:25 PM 39.7622 -101.2700 75° East 539 620 45,000  Level Denver Center
Sun 07:32:27 PM 39.7994 -101.0892 75° East 542 624 45,000  Level Denver Center
Sun 07:33:29 PM 39.8422 -100.8789 75° East 542 624 45,000  Level Denver Center
Sun 07:34:31 PM 39.8781 -100.6942 76° East 548 631 45,000  Level Denver Center
Sun 07:35:33 PM 39.9203 -100.4814 75° East 547 629 45,000  Level Denver Center
Sun 07:41:34 PM 40.1239 -99.4199 75° East 545 627 45,000  Level FlightAware ADS-B
Sun 07:42:43 PM 40.1583 -99.2345 76° East 546 628 45,000  Level FlightAware ADS-B
Sun 07:43:43 PM 40.1893 -99.0658 76° East 545 627 45,000  Level FlightAware ADS-B
Sun 07:44:52 PM 40.2547 -98.7019 76° East 541 623 45,000  Level Denver Center
Sun 07:45:56 PM 40.2878 -98.5128 77° East 541 623 45,000  Level Minneapolis Center
Sun 07:46:58 PM 40.3217 -98.3228 77° East 539 620 45,000  Level Minneapolis Center
Sun 07:48:00 PM 40.3614 -98.0936 77° East 540 621 45,000  Level Minneapolis Center
Sun 07:49:02 PM 40.3953 -97.9014 77° East 542 624 45,000  Level Minneapolis Center
Sun 07:50:04 PM 40.4278 -97.7072 78° East 545 627 45,000  Level Minneapolis Center
Sun 07:51:06 PM 40.4608 -97.5128 77° East 547 629 45,000  Level Minneapolis Center
Sun 07:52:07 PM 40.4950 -97.3047 78° East 547 629 45,000  Level Minneapolis Center
Sun 07:53:09 PM 40.5275 -97.1100 78° East 546 628 45,000  Level Minneapolis Center
Sun 07:54:11 PM 40.5597 -96.9164 78° East 546 628 45,000  Level Minneapolis Center
Sun 07:55:13 PM 40.5908 -96.7214 78° East 547 629 45,000  Level Minneapolis Center
Sun 07:56:15 PM 40.6222 -96.5281 78° East 545 627 45,000  Level Minneapolis Center
Sun 07:57:16 PM 40.6581 -96.2953 78° East 544 626 45,000  Level Minneapolis Center
Sun 07:58:18 PM 40.6883 -96.1003 78° East 546 628 45,000  Level Minneapolis Center
Sun 07:59:20 PM 40.7192 -95.9072 78° East 544 626 45,000  Level Minneapolis Center
Sun 08:00:22 PM 40.7483 -95.7133 79° East 544 626 45,000  Level Minneapolis Center
Sun 08:01:24 PM 40.7769 -95.5186 79° East 545 627 45,000  Level Minneapolis Center
Sun 08:02:25 PM 40.8069 -95.3250 78° East 545 627 45,000  Level Minneapolis Center
Sun 08:03:27 PM 40.8408 -95.0931 79° East 540 621 45,000  Level Minneapolis Center
Sun 08:04:29 PM 40.8686 -94.9006 79° East 538 619 45,000  Level Minneapolis Center
Sun 08:05:31 PM 40.8972 -94.7058 79° East 541 623 45,000  Level Minneapolis Center
Sun 08:10:54 PM 41.0438 -93.6364 79° East 538 619 45,000  Level FlightAware ADS-B
Sun 08:11:45 PM 41.0517 -93.5769 80° East 538 619 45,000  Level FlightAware ADS-B
Sun 08:12:44 PM 41.0776 -93.3787 80° East 536 617 45,000  Level FlightAware ADS-B
Sun 08:13:38 PM 41.1020 -93.1896 80° East 532 612 45,000  Level FlightAware ADS-B
Sun 08:14:09 PM 41.1249 -93.0095 80° East 532 612 45,000  Level FlightAware ADS-B
Sun 08:14:44 PM 41.0948 -93.2454 260° West 532 612 45,000  Level FlightAware ADS-B (LPVM)
Sun 08:16:24 PM 41.1792 -92.5726 80° East 533 613 45,000  Level FlightAware ADS-B (LPVM)
Sun 08:18:48 PM 41.2351 -92.1086 81° East 534 615 45,000  Level FlightAware ADS-B (LPVM)
Sun 08:19:54 PM 41.2585 -91.9083 81° East 533 613 45,000  Level FlightAware ADS-B (LPVM)
Sun 08:20:24 PM 41.2695 -91.8135 81° East 532 612 45,000  Level FlightAware ADS-B (LPVM)
Sun 08:21:37 PM 41.2585 -91.9083 261° West 528 608 45,000  Level FlightAware ADS-B (LPVM)
Sun 08:23:52 PM 41.3434 -91.1571 81° East 526 605 45,000  Level FlightAware ADS-B (LPVM)
Sun 08:24:22 PM 41.3544 -91.0578 81° East 524 603 45,000  Level Chicago Center
Sun 08:25:24 PM 41.3753 -90.8658 82° East 524 603 45,000  Level Chicago Center
Sun 08:26:26 PM 41.3961 -90.6711 82° East 528 608 45,000  Level Chicago Center
Sun 08:27:28 PM 41.4158 -90.4758 82° East 530 610 45,000  Level Chicago Center
Sun 08:28:30 PM 41.4369 -90.2806 82° East 530 610 45,000  Level Chicago Center
Sun 08:29:32 PM 41.4564 -90.0847 82° East 531 611 45,000  Level Chicago Center
Sun 08:30:34 PM 41.4786 -89.8547 83° East 522 601 45,000  Level Chicago Center
Sun 08:31:36 PM 41.4989 -89.6622 82° East 520 598 45,000  Level Chicago Center
Sun 08:32:38 PM 41.5164 -89.4708 83° East 518 596 45,000  Level Chicago Center
Sun 08:33:40 PM 41.5350 -89.2819 82° East 513 590 45,000  Level Chicago Center
Sun 08:34:42 PM 41.5494 -89.1033 84° East 513 590 45,000  Level Chicago Center
Sun 08:35:44 PM 41.5689 -88.8792 83° East 510 587 45,000  Level Chicago Center
Sun 08:36:46 PM 41.5856 -88.6894 83° East 513 590 45,000  Level Chicago Center
Sun 08:37:48 PM 41.6025 -88.4983 83° East 517 595 45,000  Level Chicago Center
Sun 08:38:51 PM 41.6194 -88.3067 83° East 518 596 45,000  Level Chicago Center
Sun 08:39:53 PM 41.6361 -88.1133 83° East 518 596 45,000  Level Chicago Center
Sun 08:40:55 PM 41.6517 -87.9192 84° East 519 597 45,000  Level Chicago Center
Sun 08:41:57 PM 41.6667 -87.7272 84° East 516 594 45,000  Level Chicago Center
Sun 08:42:59 PM 41.6836 -87.5008 84° East 511 588 45,000  Level Chicago Center
Sun 08:44:01 PM 41.6981 -87.3131 84° East 509 586 45,000  Level Chicago Center
Sun 08:45:03 PM 41.7117 -87.1267 84° East 506 582 45,000  Level Chicago Center
Sun 08:46:05 PM 41.7256 -86.9414 84° East 502 578 45,000  Level Chicago Center
Sun 08:47:07 PM 41.7389 -86.7583 84° East 498 573 45,000  Level Chicago Center
Sun 08:48:09 PM 41.7522 -86.5597 85° East 500 575 45,000  Level Chicago Center
Sun 08:49:11 PM 41.7642 -86.3739 85° East 500 575 45,000  Level Chicago Center
Sun 08:50:13 PM 41.7817 -86.1894 83° East 500 575 45,000  Level Chicago Center
Sun 08:51:15 PM 41.8036 -85.9708 82° East 494 568 45,000  Level Chicago Center
Sun 08:52:18 PM 41.8236 -85.7867 82° East 497 572 45,000  Level Chicago Center
Sun 08:53:20 PM 41.8422 -85.6008 82° East 499 574 45,000  Level Chicago Center
Sun 08:54:22 PM 41.8606 -85.4133 82° East 498 573 45,000  Level Chicago Center
Sun 08:55:24 PM 41.8781 -85.2267 83° East 498 573 45,000  Level Chicago Center
Sun 08:56:26 PM 41.8989 -85.0397 81° East 503 579 45,000  Level Chicago Center
Sun 08:57:28 PM 41.9175 -84.8503 82° East 526 605 45,000  Level Chicago Center
Sun 08:58:30 PM 41.9353 -84.6664 83° East 503 579 45,000  Level Chicago Center
Sun 08:59:32 PM 41.9567 -84.4469 82° East 495 570 45,000  Level Chicago Center
Sun 09:00:26 PM 41.9703 -84.3025 83° East 491 565 45,000  Level Cleveland Center
Sun 09:01:27 PM 41.9881 -84.1036 83° East 492 566 45,000  Level Cleveland Center
Sun 09:02:29 PM 42.0047 -83.9211 83° East 495 570 45,000  Level Cleveland Center
Sun 09:03:31 PM 42.0214 -83.7381 83° East 498 573 45,000  Level Cleveland Center
Sun 09:04:32 PM 42.0406 -83.5283 83° East 500 575 45,000  Level Cleveland Center
Sun 09:05:34 PM 42.0522 -83.3411 85° East 499 574 45,000  Level Cleveland Center
Sun 09:06:35 PM 42.0611 -83.1556 86° East 498 573 45,000  Level Cleveland Center
Sun 09:07:37 PM 42.0708 -82.9706 86° East 501 577 45,000  Level Cleveland Center
Sun 09:08:38 PM 42.0789 -82.7869 87° East 497 572 45,000  Level Cleveland Center
Sun 09:09:40 PM 42.0861 -82.6033 87° East 494 568 45,000  Level Cleveland Center
Sun 09:10:42 PM 42.0958 -82.4203 86° East 493 567 45,000  Level Cleveland Center
Sun 09:11:43 PM 42.1025 -82.2361 87° East 496 571 45,000  Level Cleveland Center
Sun 09:12:45 PM 42.1111 -82.0333 87° East 493 567 45,000  Level Cleveland Center
Sun 09:14:00 PM 42.1170 -81.8138 88° East  Level FlightAware Approximate
Sun 09:14:48 PM 42.1247 -81.6597 88° East 494 568 45,000  Level Cleveland Center
Sun 09:15:49 PM 42.1317 -81.4722 87° East 495 570 45,000  Level Cleveland Center
Sun 09:16:51 PM 42.1372 -81.2856 88° East 494 568 45,000  Level Cleveland Center
Sun 09:17:53 PM 42.1431 -81.0992 88° East 493 567 45,000  Level Cleveland Center
Sun 09:18:54 PM 42.1500 -80.8808 87° East 494 568 45,000  Level Cleveland Center
Sun 09:19:56 PM 42.1553 -80.6933 88° East 495 570 45,000  Level Cleveland Center
Sun 09:20:57 PM 42.1606 -80.5061 88° East 494 568 45,000  Level Cleveland Center
Sun 09:21:58 PM 42.1644 -80.3183 88° East 497 572 45,000  Level Cleveland Center
Sun 09:23:00 PM 42.1697 -80.1319 88° East 495 570 45,000  Level Cleveland Center
Sun 09:24:01 PM 42.1744 -79.9475 88° East 488 562 45,000  Level Cleveland Center
Sun 09:25:03 PM 42.1769 -79.7664 89° East 486 559 45,000  Level Cleveland Center
Sun 09:26:04 PM 42.1814 -79.5856 88° East 485 558 45,000  Level Cleveland Center
Sun 09:27:06 PM 42.1842 -79.4075 89° East 478 550 45,000  Level Cleveland Center
Sun 09:28:07 PM 42.1847 -79.2336 90° East 468 539 45,000  Level Cleveland Center
Sun 09:29:09 PM 42.1628 -79.0336 98° East 453 521 45,000  Level Cleveland Center
Sun 09:30:10 PM 42.1275 -78.8769 107° East 442 509 45,000  Level Cleveland Center
Sun 09:31:12 PM 42.0867 -78.7178 109° East 448 516 45,000 -146 Level Cleveland Center
Sun 09:32:13 PM 42.0461 -78.5525 108° East 462 532 44,700 -1,426 Descending Cleveland Center
Sun 09:33:14 PM 42.0028 -78.3828 109° East 476 548 42,100 -2,439 Descending Cleveland Center
Sun 09:34:16 PM 41.9592 -78.2125 109° East 482 555 39,700 -2,341 Descending Cleveland Center
Sun 09:35:17 PM 41.9139 -78.0361 109° East 477 549 37,300 -2,319 Descending Cleveland Center
Sun 09:36:15 PM 41.8678 -77.8650 110° East 481 554 35,100 -1,169 Descending New York Center
Sun 09:37:15 PM 41.8233 -77.6989 110° East 481 554 35,000 -50 Descending New York Center
Sun 09:38:15 PM 41.7808 -77.5358 109° East 481 554 35,000  Level New York Center
Sun 09:39:15 PM 41.7381 -77.3703 109° East 481 554 35,000  Level New York Center
Sun 09:40:15 PM 41.6908 -77.2017 111° Southeast 481 554 35,000  Level New York Center
Sun 09:41:15 PM 41.6478 -77.0336 109° East 481 554 35,000  Level New York Center
Sun 09:42:15 PM 41.6022 -76.8686 110° East 481 554 35,000  Level New York Center
Sun 09:43:15 PM 41.5564 -76.7036 110° East 481 554 35,000 -1,200 Level New York Center
Sun 09:44:15 PM 41.5106 -76.5361 110° East 481 554 32,600 -2,400 Descending New York Center
Sun 09:45:15 PM 41.4719 -76.3858 109° East 481 554 30,200 -2,700 Descending New York Center
Sun 09:46:15 PM 41.4219 -76.2103 111° Southeast 486 559 27,200 -2,900 Descending New York Center
Sun 09:47:15 PM 41.3767 -76.0544 111° Southeast 475 547 24,400 -2,750 Descending New York Center
Sun 09:48:15 PM 41.3333 -75.9047 111° Southeast 448 516 21,700 -2,650 Descending New York Center
Sun 09:49:15 PM 41.2914 -75.7633 112° Southeast 430 495 19,100 -1,850 Descending New York Center
Sun 09:50:15 PM 41.2439 -75.6053 112° Southeast 412 474 18,000 -600 Descending New York Center
Sun 09:51:15 PM 41.1994 -75.4697 114° Southeast 403 464 17,900 -1,250 Descending New York Center
Sun 09:52:15 PM 41.1567 -75.3400 114° Southeast 389 448 15,500 -2,900 Descending New York Center
Sun 09:53:15 PM 41.1192 -75.2300 114° Southeast 377 434 12,100 -3,150 Descending New York Center
Sun 09:54:15 PM 41.0797 -75.1092 113° Southeast 362 417 9,200 -1,357 Descending New York Center
Sun 10:00:15 PM 40.8489 -74.5625 113° Southeast 252 290 2,600 -1,053 Descending FlightAware ADS-B
Sun 10:00:31 PM 40.8392 -74.5418 122° Southeast 252 290 2,600  Level FlightAware ADS-B
Sun 10:00:46 PM 40.8298 -74.5217 122° Southeast 251 289 2,600  Level FlightAware ADS-B
Sun 10:01:02 PM 40.8205 -74.5019 122° Southeast 251 289 2,600  Level FlightAware ADS-B
Sun 10:01:17 PM 40.8113 -74.4821 122° Southeast 251 289 2,600  Level FlightAware ADS-B
Sun 10:01:34 PM 40.8011 -74.4603 122° Southeast 253 291 2,600 -78 Level FlightAware ADS-B
Sun 10:02:34 PM 40.7643 -74.3816 122° Southeast 253 291 2,500 -320 Descending FlightAware ADS-B
Sun 10:02:49 PM 40.7546 -74.3610 122° Southeast 250 288 2,200 -938 Descending FlightAware ADS-B
Sun 10:03:06 PM 40.7449 -74.3404 122° Southeast 241 277 2,000 -882 Descending FlightAware ADS-B
Sun 10:03:23 PM 40.7351 -74.3193 122° Southeast 233 268 1,700 -706 Descending FlightAware ADS-B
Sun 10:03:40 PM 40.7260 -74.3000 122° Southeast 214 246 1,600 -261 Descending FlightAware ADS-B
Sun 10:03:46 PM 40.7231 -74.2927 118° Southeast 203 234 1,600  Level FlightAware ADS-B
Sun 10:03:50 PM 40.7219 -74.2887 112° Southeast 197 227 1,600  Level FlightAware ADS-B
Sun 10:03:55 PM 40.7209 -74.2826 102° East 192 221 1,600  Level FlightAware ADS-B
Sun 10:03:59 PM 40.7211 -74.2781 87° East 184 212 1,600  Level FlightAware ADS-B
Sun 10:04:07 PM 40.7222 -74.2696 80° East 174 200 1,600  Level FlightAware ADS-B
Sun 10:04:12 PM 40.7230 -74.2650 77° East 169 194 1,600  Level FlightAware ADS-B
Sun 10:04:24 PM 40.7252 -74.2527 77° East 166 191 1,600  Level FlightAware ADS-B
Sun 10:04:29 PM 40.7269 -74.2479 65° Northeast 165 190 1,600  Level FlightAware ADS-B
Sun 10:04:33 PM 40.7282 -74.2450 59° Northeast 165 190 1,600  Level FlightAware ADS-B
Sun 10:04:38 PM 40.7309 -74.2405 52° Northeast 165 190 1,600 -571 Level FlightAware ADS-B
Sun 10:04:54 PM 40.7392 -74.2286 47° Northeast 166 191 1,400 -909 Descending FlightAware ADS-B
Sun 10:05:11 PM 40.7476 -74.2164 48° Northeast 163 188 1,100 -486 Descending FlightAware ADS-B
Sun 10:05:31 PM 40.7571 -74.2021 49° Northeast 156 180 1,100  Level FlightAware ADS-B
Sun 10:05:47 PM 40.7649 -74.1904 49° Northeast 155 178 1,100  Level FlightAware ADS-B
Sun 10:06:00 PM 40.7710 -74.1816 48° Northeast 155 178 1,100  Level FlightAware ADS-B
Sun 10:06:08 PM 40.7747 -74.1762 48° Northeast 153 176 1,100  Level FlightAware ADS-B
Sun 10:06:20 PM 40.7804 -74.1676 49° Northeast 156 180 1,100  Level FlightAware ADS-B
Sun 10:06:36 PM 40.7877 -74.1567 49° Northeast 147 169 1,100  Level FlightAware ADS-B
Sun 10:07:00 PM 40.7980 -74.1420 47° Northeast 134 154 1,100 -176 Level FlightAware ADS-B
Sun 10:07:10 PM 40.8023 -74.1358 48° Northeast 135 155 1,000 -712 Descending FlightAware ADS-B
Sun 10:07:59 PM 40.8224 -74.1061 48° Northeast 133 153 400 -764 Descending FlightAware ADS-B
Sun 10:08:05 PM 40.8250 -74.1023 48° Northeast 132 152 300 -667 Descending FlightAware ADS-B
Sun 10:08:17 PM 40.8296 -74.0956 48° Northeast 129 148 200 -571 Descending FlightAware ADS-B
Sun 10:08:26 PM 40.8331 -74.0905 48° Northeast 127 146 100 -667 Descending FlightAware ADS-B

Login

Don't have an account? Register now (free) for customized features, flight alerts, and more!